Weser, Texas
Current Conditions -  °F | °C
As of 1:15 PM on Thursday 30 Oct 2014 (Local Time) from KBEA Reporting Station
Overcast Overcast  
Wind Chill: 27°   Ceiling: 2800
Heat Index: 29°   Visibility: 10mi
Dew Point: 19°   Wind: 0mph
Humidity: 60%   Direction: NA
Pressure: 30.09"   Gusts: NA
Location:  28.6563°N, 97.4287°W
Report Text: KBEA 301815Z AUTO 00000KT 10SM BKN028 OVC036 27/19 A3009 RMK AO2 T02740189
Loading
Personal Weather Stations






























Interactive Weather Map
Tropical Storm Tracking
New forecast layout! Learn more

10-Day Weather Forecast

Advertisements
Track Severe Weather on mobile